UDYZ/EVN METAR and TAF weather

Enter ICAO airport designator
Station Type Date Time Source
UDYZ METAR 2021/10/22 19:30 UTC NOAA

UDYZ 221930Z 23001KT 9999 NSC 07/M03 Q1023 R09/010070 NOSIG


Station Type Date Time Source
UDYZ Decoded METAR 2021/10/22 19:30 UTC NOAA

Station name not available
Oct 22, 2021 - 03:30 PM EDT / 2021.10.22 1930 UTC
Wind: from the SW (230 degrees) at 1 MPH (1 KT):0
Visibility: greater than 7 mile(s):0
Temperature: 44 F (7 C)
Dew Point: 26 F (-3 C)
Relative Humidity: 48%
Pressure (altimeter): 30.21 in. Hg (1023 hPa)
ob: UDYZ 221930Z 23001KT 9999 NSC 07/M03 Q1023 R09/010070 NOSIG
cycle: 19

Station Type Date Time Source
UDYZ TAF 2021/10/22 18:00 UTC NOAA

TAF UDYZ 221707Z 2218/2318 VRB04KT CAVOK

Example: see airport list